Terminal Aerodrome Forecast
Issued by NWS

Home | Current Version | Previous Version | Text Only | Print | Product List | Glossary On
Versions: 1 2 3 4 5 6 7 8 9 10 11 12 13 14 15 16 17 18
000
FTUS45 KABQ 242339
TAFTCC
TAF
KTCC 242339Z 2500/2524 24012G22KT P6SM SCT080
     FM250200 25010KT P6SM FEW100 SCT200
     FM251700 24015G22KT P6SM SCT100=

USA.gov is the U.S. government's official web portal to all federal, state and local government web resources and services.